PROFILE

 METAR AND TAF INFORMATION
ADDS - METARS form results

(0054 UTC 20 February 2020)
http://aviationweather.gov/metar/data/
 
TAF EGJJ 192259Z 2000/2009 21017KT 9999 FEW020 BKN040 PROB30 TEMPO 2000/2009 9000 -RA BKN015 PROB40 TEMPO 2006/2009 20020G30KT 

 AIRPORT MAP

 RUNWAY INFORMATION
Runway 09 Runway length 5597 ft Runway width 151 ft
Runway elevation 270 ft Runway displaced threshold 200 ft Runway heading 83
Runway 27 Runway length 5597 ft Runway width 151 ft
Runway elevation 271 ft Runway displaced threshold 299 ft Runway heading 263

 AIRPORT FREQUENCIES
Type APP Name APP Frequency 120.3 MHZ
Type ATIS Name INFO Frequency 112.2 MHZ
Type GND Name GND Frequency 121.9 MHZ
Type RDR Name RDR Frequency 118.55 MHZ
Type TWR Name TWR Frequency 119.45 MHZ

 AIRPORT NEAR NAVIGATION AIDS
Type VOR-DME Name Jersey Frequency 112200 KHZ